createdAt,value
2022-08-03T00:01:31.995Z,98847.00
2022-08-03T00:03:59.509Z,98848.19
2022-08-03T00:06:26.675Z,98849.47
2022-08-03T00:08:53.781Z,98848.03
2022-08-03T00:11:21.169Z,98841.22
2022-08-03T00:13:48.307Z,98842.47
2022-08-03T00:16:15.440Z,98848.97
2022-08-03T00:18:42.805Z,98846.03
2022-08-03T00:21:09.920Z,98844.41
2022-08-03T00:23:51.699Z,98845.19
2022-08-03T00:26:23.232Z,98849.06
2022-08-03T00:28:50.508Z,98846.22
2022-08-03T00:31:20.380Z,98839.31
2022-08-03T00:34:05.996Z,98844.91
2022-08-03T00:36:33.940Z,98844.13
2022-08-03T00:39:01.086Z,98843.78
2022-08-03T00:41:28.469Z,98845.41
2022-08-03T00:43:55.544Z,98846.03
2022-08-03T00:46:22.697Z,98851.34
2022-08-03T00:48:50.348Z,98849.09
2022-08-03T00:51:18.362Z,98851.94
2022-08-03T00:53:46.063Z,98854.56
2022-08-03T00:56:15.215Z,98853.50
2022-08-03T00:58:44.800Z,98846.53
2022-08-03T01:01:12.638Z,98848.41
2022-08-03T01:03:40.818Z,98849.06
2022-08-03T01:06:44.849Z,98852.34
2022-08-03T01:09:18.011Z,98848.59
2022-08-03T01:12:00.713Z,98851.47
2022-08-03T01:14:38.592Z,98853.34
2022-08-03T01:17:20.705Z,98849.87
2022-08-03T01:20:02.464Z,98849.44
2022-08-03T01:22:52.359Z,98858.91
2022-08-03T01:25:41.145Z,98854.78
2022-08-03T01:28:16.868Z,98856.00
2022-08-03T01:30:45.654Z,98850.47
2022-08-03T01:33:17.327Z,98854.12
2022-08-03T01:36:05.675Z,98859.31
2022-08-03T01:38:34.741Z,98858.47
2022-08-03T01:41:06.329Z,98853.34
2022-08-03T01:44:27.004Z,98859.91
2022-08-03T01:46:22.259Z,98855.50
2022-08-03T01:48:49.821Z,98852.41
2022-08-03T01:51:18.978Z,98851.56
2022-08-03T01:53:47.234Z,98852.56
2022-08-03T01:56:14.874Z,98856.66
2022-08-03T01:58:42.412Z,98851.13
2022-08-03T02:01:10.416Z,98854.59
2022-08-03T02:04:00.677Z,98854.78
2022-08-03T02:07:02.355Z,98855.38
2022-08-03T02:09:19.590Z,98864.16
2022-08-03T02:11:47.510Z,98856.00
2022-08-03T02:14:15.444Z,98859.06
2022-08-03T02:16:43.892Z,98857.22
2022-08-03T02:19:11.576Z,98858.63
2022-08-03T02:21:56.352Z,98858.63
2022-08-03T02:24:26.574Z,98854.91
2022-08-03T02:26:56.017Z,98855.94
2022-08-03T02:29:39.457Z,98851.78
2022-08-03T02:32:12.912Z,98853.28
2022-08-03T02:34:41.148Z,98860.78
2022-08-03T02:37:10.559Z,98860.34
2022-08-03T02:39:38.651Z,98861.56
2022-08-03T02:42:06.869Z,98855.47
2022-08-03T02:44:35.704Z,98860.34
2022-08-03T02:47:06.535Z,98859.72
2022-08-03T02:49:42.153Z,98855.03
2022-08-03T02:52:20.295Z,98857.87
2022-08-03T02:54:49.761Z,98857.06
2022-08-03T02:57:18.633Z,98859.47
2022-08-03T02:59:46.782Z,98869.22
2022-08-03T03:02:16.370Z,98860.84
2022-08-03T03:05:50.533Z,98867.53
2022-08-03T03:07:47.804Z,98866.91
2022-08-03T03:10:22.556Z,98865.06
2022-08-03T03:12:55.960Z,98861.66
2022-08-03T03:15:24.865Z,98863.91
2022-08-03T03:17:53.624Z,98860.25
2022-08-03T03:20:29.381Z,98870.47
2022-08-03T03:23:01.601Z,98859.00
2022-08-03T03:25:32.637Z,98871.66
2022-08-03T03:28:01.107Z,98860.22
2022-08-03T03:30:30.135Z,98865.16
2022-08-03T03:32:58.689Z,98869.00
2022-08-03T03:35:27.780Z,98868.00
2022-08-03T03:37:54.949Z,98861.66
2022-08-03T03:40:23.780Z,98864.94
2022-08-03T03:42:51.430Z,98865.16
2022-08-03T03:45:19.047Z,98864.75
2022-08-03T03:47:46.213Z,98872.47
2022-08-03T03:50:15.578Z,98869.19
2022-08-03T03:52:42.651Z,98866.34
2022-08-03T03:55:09.832Z,98873.53
2022-08-03T03:57:37.233Z,98871.13
2022-08-03T04:00:05.038Z,98866.84
2022-08-03T04:02:32.018Z,98869.72
2022-08-03T04:05:18.051Z,98879.97
2022-08-03T04:08:28.484Z,98875.16
2022-08-03T04:11:00.417Z,98882.38
2022-08-03T04:13:50.984Z,98880.37
2022-08-03T04:16:21.301Z,98882.06
2022-08-03T04:18:52.910Z,98886.59
2022-08-03T04:21:21.534Z,98890.50
2022-08-03T04:23:50.097Z,98892.19
2022-08-03T04:26:21.261Z,98896.72
2022-08-03T04:28:51.990Z,98899.66
2022-08-03T04:31:22.695Z,98907.88
2022-08-03T04:33:52.397Z,98900.34
2022-08-03T04:36:25.377Z,98904.53
2022-08-03T04:39:06.672Z,98900.69
2022-08-03T04:42:02.229Z,98911.16
2022-08-03T04:44:28.262Z,98904.03
2022-08-03T04:46:56.597Z,98907.12
2022-08-03T04:49:25.510Z,98912.69
2022-08-03T04:51:52.720Z,98922.12
2022-08-03T04:54:20.179Z,98925.41
2022-08-03T04:56:47.541Z,98928.25
2022-08-03T04:59:14.775Z,98928.22
2022-08-03T05:01:44.712Z,98935.81
2022-08-03T05:04:12.144Z,98937.03
2022-08-03T05:06:47.854Z,98931.06
2022-08-03T05:09:16.171Z,98939.69
2022-08-03T05:12:03.442Z,98935.53
2022-08-03T05:14:30.801Z,98937.56
2022-08-03T05:16:57.823Z,98932.59
2022-08-03T05:19:25.257Z,98953.34
2022-08-03T05:21:53.125Z,98945.25
2022-08-03T05:24:20.215Z,98950.09
2022-08-03T05:26:47.337Z,98946.19
2022-08-03T05:29:14.733Z,98950.44
2022-08-03T05:31:41.894Z,98947.16
2022-08-03T05:34:08.983Z,98955.69
2022-08-03T05:36:36.432Z,98951.09
2022-08-03T05:39:03.542Z,98954.78
2022-08-03T05:41:37.225Z,98951.09
2022-08-03T05:44:05.203Z,98956.59
2022-08-03T05:46:32.367Z,98955.56
2022-08-03T05:48:59.494Z,98959.06
2022-08-03T05:51:27.754Z,98955.59
2022-08-03T05:53:54.849Z,98960.28
2022-08-03T05:56:24.352Z,98959.53
2022-08-03T05:58:52.527Z,98961.47
2022-08-03T06:01:23.699Z,98969.41
2022-08-03T06:03:52.135Z,98968.59
2022-08-03T06:06:19.456Z,98970.25
2022-08-03T06:08:46.850Z,98970.66
2022-08-03T06:11:14.416Z,98970.63
2022-08-03T06:13:41.630Z,98976.38
2022-08-03T06:16:09.051Z,98978.66
2022-08-03T06:18:36.751Z,98979.56
2022-08-03T06:21:14.846Z,98975.53
2022-08-03T06:23:52.989Z,98982.81
2022-08-03T06:26:21.116Z,98979.34
2022-08-03T06:28:52.997Z,98987.44
2022-08-03T06:31:33.435Z,98987.28
2022-08-03T06:34:33.937Z,98982.34
2022-08-03T06:36:52.388Z,98990.34
2022-08-03T06:39:23.534Z,98983.59
2022-08-03T06:41:51.653Z,98989.34
2022-08-03T06:44:18.706Z,98989.78
2022-08-03T06:46:46.103Z,98986.13
2022-08-03T06:49:13.650Z,98983.91
2022-08-03T06:52:04.259Z,98995.91
2022-08-03T06:54:28.362Z,98990.16
2022-08-03T06:56:55.458Z,99000.28
2022-08-03T07:00:06.108Z,98993.91
2022-08-03T07:02:10.488Z,98988.53
2022-08-03T07:04:37.944Z,98992.84
2022-08-03T07:07:05.028Z,98990.44
2022-08-03T07:09:32.426Z,98995.19
2022-08-03T07:11:59.474Z,98984.44
2022-08-03T07:14:26.575Z,98998.16
2022-08-03T07:16:54.016Z,98996.78
2022-08-03T07:19:21.056Z,98990.22
2022-08-03T07:21:48.113Z,98994.53
2022-08-03T07:24:15.504Z,98991.03
2022-08-03T07:26:42.652Z,98998.41
2022-08-03T07:29:15.157Z,98993.72
2022-08-03T07:31:42.863Z,98994.25
2022-08-03T07:34:10.047Z,98995.16
2022-08-03T07:36:38.109Z,98990.34
2022-08-03T07:39:16.015Z,99003.22
2022-08-03T07:41:45.677Z,98992.84
2022-08-03T07:44:13.467Z,98998.00
2022-08-03T07:46:40.591Z,98997.63
2022-08-03T07:49:07.799Z,98996.66
2022-08-03T07:51:35.310Z,98995.50
2022-08-03T07:54:02.367Z,98989.22
2022-08-03T07:56:30.531Z,98994.69
2022-08-03T07:58:58.215Z,98991.34
2022-08-03T08:01:25.539Z,98990.66
2022-08-03T08:03:53.718Z,98988.03
2022-08-03T08:06:21.770Z,98996.44
2022-08-03T08:08:49.000Z,98989.63
2022-08-03T08:11:16.448Z,98987.47
2022-08-03T08:13:43.489Z,98986.38
2022-08-03T08:16:10.640Z,99005.59
2022-08-03T08:18:38.010Z,98993.50
2022-08-03T08:21:05.081Z,98998.88
2022-08-03T08:23:43.096Z,98994.91
2022-08-03T08:26:12.302Z,98998.12
2022-08-03T08:28:39.426Z,98996.31
2022-08-03T08:31:06.726Z,98990.66
2022-08-03T08:34:02.669Z,98992.44
2022-08-03T08:36:22.293Z,98992.66
2022-08-03T08:38:49.734Z,98995.75
2022-08-03T08:41:17.332Z,98987.13
2022-08-03T08:43:44.432Z,98991.53
2022-08-03T08:46:13.189Z,98991.28
2022-08-03T08:48:51.976Z,98993.47
2022-08-03T08:51:20.878Z,98997.31
2022-08-03T08:53:52.496Z,98986.00
2022-08-03T08:56:20.530Z,98989.31
2022-08-03T08:58:51.966Z,98984.28
2022-08-03T09:01:20.399Z,98985.84
2022-08-03T09:03:47.900Z,98987.78
2022-08-03T09:06:15.370Z,98979.09
2022-08-03T09:08:42.754Z,98986.94
2022-08-03T09:11:11.105Z,98979.91
2022-08-03T09:13:39.437Z,98981.44
2022-08-03T09:16:27.020Z,98983.44
2022-08-03T09:18:54.557Z,98983.19
2022-08-03T09:21:32.141Z,98976.56
2022-08-03T09:24:05.774Z,98978.97
2022-08-03T09:26:35.935Z,98976.44
2022-08-03T09:29:13.939Z,98974.75
2022-08-03T09:31:43.707Z,98975.62
2022-08-03T09:34:14.883Z,98984.25
2022-08-03T09:36:50.668Z,98974.06
2022-08-03T09:39:40.459Z,98964.59
2022-08-03T09:42:23.948Z,98965.94
2022-08-03T09:44:52.234Z,98965.06
2022-08-03T09:47:29.884Z,98962.31
2022-08-03T09:50:02.300Z,98955.47
2022-08-03T09:52:49.433Z,98960.62
2022-08-03T09:56:32.896Z,98959.47
2022-08-03T09:58:10.413Z,98966.06
2022-08-03T10:01:00.228Z,98957.00
2022-08-03T10:03:30.263Z,98952.88
2022-08-03T10:05:59.964Z,98950.63
2022-08-03T10:08:27.677Z,98958.03
2022-08-03T10:10:54.821Z,98956.16
2022-08-03T10:13:22.933Z,98947.44
2022-08-03T10:16:21.763Z,98946.03
2022-08-03T10:18:38.315Z,98945.75
2022-08-03T10:21:09.007Z,98941.72
2022-08-03T10:23:38.330Z,98943.06
2022-08-03T10:26:08.231Z,98935.63
2022-08-03T10:28:44.543Z,98941.81
2022-08-03T10:31:14.246Z,98937.19
2022-08-03T10:33:50.158Z,98938.16
2022-08-03T10:36:24.651Z,98933.59
2022-08-03T10:38:53.076Z,98929.56
2022-08-03T10:41:26.745Z,98922.94
2022-08-03T10:44:09.788Z,98930.50
2022-08-03T10:46:44.147Z,98927.81
2022-08-03T10:49:16.134Z,98919.84
2022-08-03T10:51:45.620Z,98924.38
2022-08-03T10:54:37.417Z,98912.78
2022-08-03T10:57:23.453Z,98908.56
2022-08-03T10:59:54.625Z,98903.19
2022-08-03T11:02:22.080Z,98908.88
2022-08-03T11:05:28.782Z,98905.69
2022-08-03T11:08:18.072Z,98901.84
2022-08-03T11:10:45.372Z,98891.34
2022-08-03T11:13:19.988Z,98891.88
2022-08-03T11:15:50.026Z,98889.19
2022-08-03T11:18:17.690Z,98889.69
2022-08-03T11:20:54.309Z,98886.38
2022-08-03T11:24:05.524Z,98882.59
2022-08-03T11:26:34.380Z,98891.59
2022-08-03T11:29:27.440Z,98889.44
2022-08-03T11:31:54.618Z,98892.22
2022-08-03T11:34:22.060Z,98890.47
2022-08-03T11:37:22.498Z,98885.66
2022-08-03T11:39:52.995Z,98880.75
2022-08-03T11:42:23.128Z,98887.25
2022-08-03T11:44:51.357Z,98882.38
2022-08-03T11:47:20.149Z,98874.69
2022-08-03T11:49:48.609Z,98876.72
2022-08-03T11:52:19.594Z,98877.41
2022-08-03T11:54:56.539Z,98878.50
2022-08-03T11:59:15.325Z,98875.47
2022-08-03T12:00:30.492Z,98874.59
2022-08-03T12:03:02.932Z,98869.56
2022-08-03T12:05:35.021Z,98861.94
2022-08-03T12:08:06.711Z,98864.28
2022-08-03T12:10:35.003Z,98862.56
2022-08-03T12:13:05.941Z,98854.16
2022-08-03T12:15:57.495Z,98859.66
2022-08-03T12:18:25.584Z,98849.16
2022-08-03T12:20:54.301Z,98857.75
2022-08-03T12:23:27.344Z,98858.37
2022-08-03T12:26:03.727Z,98861.00
2022-08-03T12:28:37.104Z,98844.72
2022-08-03T12:31:09.632Z,98851.09
2022-08-03T12:33:55.553Z,98852.03
2022-08-03T12:36:23.203Z,98847.78
2022-08-03T12:39:16.519Z,98844.00
2022-08-03T12:41:44.078Z,98838.16
2022-08-03T12:44:11.114Z,98841.47
2022-08-03T12:46:45.418Z,98843.59
2022-08-03T12:49:17.182Z,98833.03
2022-08-03T12:51:44.236Z,98829.75
2022-08-03T12:54:24.528Z,98837.34
2022-08-03T12:57:05.264Z,98830.94
2022-08-03T12:59:40.633Z,98822.16
2022-08-03T13:02:20.074Z,98831.47
2022-08-03T13:04:52.571Z,98829.59
2022-08-03T13:07:21.472Z,98824.19
2022-08-03T13:09:52.951Z,98827.13
2022-08-03T13:12:28.675Z,98823.88
2022-08-03T13:15:00.310Z,98824.72
2022-08-03T13:17:28.171Z,98813.59
2022-08-03T13:19:56.314Z,98811.31
2022-08-03T13:22:26.022Z,98820.25
2022-08-03T13:24:57.787Z,98817.03
2022-08-03T13:28:05.435Z,98809.81
2022-08-03T13:30:13.376Z,98816.06
2022-08-03T13:32:40.673Z,98810.91
2022-08-03T13:35:09.114Z,98805.00
2022-08-03T13:37:37.309Z,98807.44
2022-08-03T13:40:06.473Z,98803.66
2022-08-03T13:42:35.049Z,98802.00
2022-08-03T13:45:03.704Z,98803.69
2022-08-03T13:47:31.079Z,98798.63
2022-08-03T13:50:01.133Z,98798.56
2022-08-03T13:52:35.165Z,98805.69
2022-08-03T13:55:04.579Z,98795.47
2022-08-03T13:58:02.398Z,98789.44
2022-08-03T14:00:27.200Z,98783.13
2022-08-03T14:03:13.805Z,98779.38
2022-08-03T14:05:44.997Z,98778.41
2022-08-03T14:08:12.713Z,98784.00
2022-08-03T14:10:41.936Z,98772.75
2022-08-03T14:13:10.450Z,98764.72
2022-08-03T14:15:38.692Z,98774.84
2022-08-03T14:18:15.830Z,98764.16
2022-08-03T14:20:56.795Z,98762.44
2022-08-03T14:23:24.869Z,98758.59
2022-08-03T14:25:53.044Z,98752.78
2022-08-03T14:28:25.136Z,98755.06
2022-08-03T14:30:53.835Z,98754.44
2022-08-03T14:33:21.732Z,98746.78
2022-08-03T14:35:49.513Z,98753.56
2022-08-03T14:38:17.173Z,98750.87
2022-08-03T14:40:48.091Z,98749.19
2022-08-03T14:43:17.869Z,98749.81
2022-08-03T14:45:45.321Z,98749.97
2022-08-03T14:50:29.293Z,98741.84
2022-08-03T14:51:00.086Z,98746.78
2022-08-03T14:53:28.725Z,98738.84
2022-08-03T14:55:55.800Z,98734.66
2022-08-03T14:58:25.223Z,98728.75
2022-08-03T15:00:54.180Z,98736.41
2022-08-03T15:03:26.272Z,98732.41
2022-08-03T15:05:57.797Z,98729.47
2022-08-03T15:08:25.834Z,98732.12
2022-08-03T15:10:54.301Z,98745.97
2022-08-03T15:13:22.151Z,98731.47
2022-08-03T15:15:49.911Z,98727.00
2022-08-03T15:18:17.083Z,98737.81
2022-08-03T15:20:46.243Z,98731.44
2022-08-03T15:23:15.263Z,98730.03
2022-08-03T15:26:03.893Z,98728.09
2022-08-03T15:28:33.585Z,98734.84
2022-08-03T15:31:01.464Z,98732.09
2022-08-03T15:33:29.147Z,98731.19
2022-08-03T15:35:57.072Z,98731.34
2022-08-03T15:38:26.069Z,98722.31
2022-08-03T15:40:55.055Z,98723.44
2022-08-03T15:43:25.446Z,98719.34
2022-08-03T15:46:12.679Z,98725.09
2022-08-03T15:48:41.152Z,98728.41
2022-08-03T15:51:08.573Z,98715.41
2022-08-03T15:53:35.903Z,98710.75
2022-08-03T15:56:09.393Z,98717.19
2022-08-03T15:59:11.352Z,98719.97
2022-08-03T16:01:26.291Z,98730.81
2022-08-03T16:03:53.807Z,98724.31
2022-08-03T16:06:29.396Z,98713.94
2022-08-03T16:09:01.854Z,98716.03
2022-08-03T16:11:29.263Z,98712.75
2022-08-03T16:14:12.414Z,98706.16
2022-08-03T16:16:46.783Z,98707.94
2022-08-03T16:19:13.934Z,98710.63
2022-08-03T16:21:48.143Z,98711.88
2022-08-03T16:24:17.222Z,98713.53
2022-08-03T16:26:47.071Z,98710.16
2022-08-03T16:29:23.475Z,98710.38
2022-08-03T16:31:52.168Z,98710.25
2022-08-03T16:34:20.000Z,98705.41
2022-08-03T16:36:47.084Z,98706.97
2022-08-03T16:39:14.517Z,98706.53
2022-08-03T16:41:53.665Z,98707.84
2022-08-03T16:44:29.809Z,98707.28
2022-08-03T16:46:59.349Z,98714.22
2022-08-03T16:49:54.832Z,98705.72
2022-08-03T16:52:18.112Z,98709.66
2022-08-03T16:54:50.682Z,98713.56
2022-08-03T16:57:56.382Z,98710.59
2022-08-03T17:00:32.999Z,98713.34
2022-08-03T17:03:04.374Z,98706.94
2022-08-03T17:05:43.635Z,98707.16
2022-08-03T17:08:15.902Z,98719.34
2022-08-03T17:10:45.279Z,98724.66
2022-08-03T17:13:21.769Z,98725.00
2022-08-03T17:15:57.886Z,98732.94
2022-08-03T17:18:32.463Z,98727.03
2022-08-03T17:21:03.320Z,98725.50
2022-08-03T17:24:12.578Z,98728.94
2022-08-03T17:26:44.647Z,98725.81
2022-08-03T17:29:13.348Z,98732.84
2022-08-03T17:31:48.708Z,98731.47
2022-08-03T17:34:18.729Z,98732.72
2022-08-03T17:37:03.673Z,98739.25
2022-08-03T17:39:57.168Z,98740.56
2022-08-03T17:42:29.227Z,98742.66
2022-08-03T17:45:02.379Z,98732.59
2022-08-03T17:47:42.949Z,98740.78
2022-08-03T17:50:25.254Z,98738.69
2022-08-03T17:53:07.854Z,98740.31
2022-08-03T17:55:54.799Z,98735.16
2022-08-03T17:58:39.806Z,98735.81
2022-08-03T18:02:00.218Z,98743.25
2022-08-03T18:04:30.340Z,98745.28
2022-08-03T18:06:59.742Z,98741.44
2022-08-03T18:10:06.398Z,98737.06
2022-08-03T18:12:26.865Z,98747.66
2022-08-03T18:15:07.796Z,98742.63
2022-08-03T18:17:55.949Z,98738.72
2022-08-03T18:20:33.029Z,98746.53
2022-08-03T18:23:06.143Z,98750.03
2022-08-03T18:25:44.948Z,98755.56
2022-08-03T18:28:14.389Z,98759.44
2022-08-03T18:30:53.894Z,98759.22
2022-08-03T18:34:19.273Z,98760.38
2022-08-03T18:36:18.126Z,98760.19
2022-08-03T18:38:47.561Z,98765.09
2022-08-03T18:41:20.889Z,98764.03
2022-08-03T18:44:07.845Z,98770.00
2022-08-03T18:47:16.203Z,98772.19
2022-08-03T18:49:59.905Z,98771.38
2022-08-03T18:52:34.399Z,98783.81
2022-08-03T18:55:19.678Z,98777.66
2022-08-03T18:57:52.536Z,98785.84
2022-08-03T19:00:24.512Z,98783.50
2022-08-03T19:03:20.561Z,98794.81
2022-08-03T19:06:03.058Z,98800.88
2022-08-03T19:09:13.104Z,98799.06
2022-08-03T19:12:12.647Z,98798.84
2022-08-03T19:14:35.563Z,98795.22
2022-08-03T19:17:10.718Z,98789.84
2022-08-03T19:19:44.120Z,98800.34
2022-08-03T19:22:16.367Z,98797.81
2022-08-03T19:24:45.445Z,98799.88
2022-08-03T19:27:13.357Z,98804.66
2022-08-03T19:29:59.366Z,98798.59
2022-08-03T19:32:29.395Z,98793.34
2022-08-03T19:35:00.812Z,98804.97
2022-08-03T19:37:38.557Z,98807.00
2022-08-03T19:40:10.792Z,98805.69
2022-08-03T19:42:41.416Z,98813.59
2022-08-03T19:45:11.180Z,98817.75
2022-08-03T19:47:46.747Z,98816.09
2022-08-03T19:53:07.060Z,98817.16
2022-08-03T19:55:49.048Z,98812.50
2022-08-03T19:58:28.394Z,98817.34
2022-08-03T20:00:56.214Z,98812.94
2022-08-03T20:03:27.836Z,98814.31
2022-08-03T20:06:12.208Z,98812.75
2022-08-03T20:08:44.982Z,98813.19
2022-08-03T20:11:15.827Z,98818.19
2022-08-03T20:13:48.380Z,98816.19
2022-08-03T20:16:15.920Z,98812.53
2022-08-03T20:18:43.159Z,98817.31
2022-08-03T20:21:15.782Z,98815.09
2022-08-03T20:24:01.904Z,98810.84
2022-08-03T20:26:31.293Z,98815.66
2022-08-03T20:29:09.220Z,98819.28
2022-08-03T20:31:37.686Z,98816.41
2022-08-03T20:34:06.421Z,98817.06
2022-08-03T20:36:33.484Z,98816.72
2022-08-03T20:39:00.775Z,98815.97
2022-08-03T20:41:28.245Z,98817.03
2022-08-03T20:43:57.851Z,98820.94
2022-08-03T20:46:30.039Z,98814.78
2022-08-03T20:49:05.292Z,98817.88
2022-08-03T20:51:50.140Z,98819.69
2022-08-03T20:54:29.510Z,98815.19
2022-08-03T20:57:00.412Z,98814.81
2022-08-03T20:59:36.908Z,98813.63
2022-08-03T21:02:30.072Z,98809.47
2022-08-03T21:05:03.352Z,98814.22
2022-08-03T21:08:04.936Z,98815.19
2022-08-03T21:10:37.833Z,98806.16
2022-08-03T21:13:03.005Z,98812.25
2022-08-03T21:16:06.687Z,98816.62
2022-08-03T21:18:38.027Z,98816.47
2022-08-03T21:21:06.451Z,98824.47
2022-08-03T21:23:40.316Z,98818.53
2022-08-03T21:26:18.033Z,98823.69
2022-08-03T21:28:47.494Z,98821.00
2022-08-03T21:31:24.896Z,98826.34
2022-08-03T21:34:02.405Z,98819.78
2022-08-03T21:36:34.028Z,98824.12
2022-08-03T21:39:04.535Z,98819.78
2022-08-03T21:41:32.351Z,98823.44
2022-08-03T21:44:00.339Z,98829.53
2022-08-03T21:46:30.639Z,98825.56
2022-08-03T21:50:07.443Z,98832.41
2022-08-03T21:51:50.569Z,98832.44
2022-08-03T21:54:20.506Z,98838.00
2022-08-03T21:56:48.544Z,98840.53
2022-08-03T21:59:20.351Z,98846.09
2022-08-03T22:01:49.385Z,98841.38
2022-08-03T22:04:50.691Z,98839.94
2022-08-03T22:07:10.074Z,98849.41
2022-08-03T22:09:37.449Z,98846.72
2022-08-03T22:12:05.054Z,98835.06
2022-08-03T22:14:34.908Z,98842.44
2022-08-03T22:17:03.492Z,98844.06
2022-08-03T22:19:34.595Z,98842.87
2022-08-03T22:22:06.059Z,98847.78
2022-08-03T22:24:35.659Z,98842.25
2022-08-03T22:27:21.957Z,98843.91
2022-08-03T22:29:51.040Z,98844.16
2022-08-03T22:32:18.336Z,98844.56
2022-08-03T22:34:47.395Z,98852.44
2022-08-03T22:37:17.862Z,98850.41
2022-08-03T22:39:45.669Z,98853.50
2022-08-03T22:42:13.710Z,98854.53
2022-08-03T22:44:41.071Z,98847.12
2022-08-03T22:47:09.703Z,98847.31
2022-08-03T22:49:37.152Z,98848.16
2022-08-03T22:52:06.318Z,98843.25
2022-08-03T22:54:33.741Z,98856.22
2022-08-03T22:57:00.983Z,98855.81
2022-08-03T22:59:40.226Z,98854.56
2022-08-03T23:02:20.723Z,98855.78
2022-08-03T23:05:11.045Z,98851.28
2022-08-03T23:07:56.270Z,98848.06
2022-08-03T23:10:24.855Z,98846.84
2022-08-03T23:12:52.979Z,98851.78
2022-08-03T23:15:21.387Z,98853.84
2022-08-03T23:17:57.441Z,98858.19
2022-08-03T23:20:26.596Z,98857.16
2022-08-03T23:22:54.722Z,98858.63
2022-08-03T23:25:22.101Z,98851.66
2022-08-03T23:28:05.095Z,98850.63
2022-08-03T23:30:34.927Z,98858.00
2022-08-03T23:33:03.151Z,98853.09
2022-08-03T23:36:27.887Z,98848.72
2022-08-03T23:38:36.850Z,98854.31
2022-08-03T23:41:04.979Z,98856.56
2022-08-03T23:43:51.339Z,98854.91
2022-08-03T23:46:24.066Z,98856.75
2022-08-03T23:48:51.433Z,98857.16
2022-08-03T23:51:51.061Z,98855.88
2022-08-03T23:54:30.437Z,98854.81
2022-08-03T23:57:03.869Z,98852.97
2022-08-03T23:59:58.961Z,98848.47
